sensor_id;sensor_type;location;lat;lon;timestamp;P1;durP1;ratioP1;P2;durP2;ratioP2
70985;SDS011;58645;43.068;25.610;2023-02-15T00:00:22;28.25;;;13.05;;
70985;SDS011;58645;43.068;25.610;2023-02-15T00:02:48;28.63;;;11.85;;
70985;SDS011;58645;43.068;25.610;2023-02-15T00:05:13;28.48;;;13.10;;
70985;SDS011;58645;43.068;25.610;2023-02-15T00:07:39;29.00;;;12.57;;
70985;SDS011;58645;43.068;25.610;2023-02-15T00:10:05;33.08;;;14.63;;
70985;SDS011;58645;43.068;25.610;2023-02-15T00:12:32;31.05;;;12.23;;
70985;SDS011;58645;43.068;25.610;2023-02-15T00:14:58;27.90;;;13.15;;
70985;SDS011;58645;43.068;25.610;2023-02-15T00:17:26;28.20;;;12.65;;
70985;SDS011;58645;43.068;25.610;2023-02-15T00:19:53;26.98;;;12.68;;
70985;SDS011;58645;43.068;25.610;2023-02-15T00:22:19;26.27;;;11.85;;
70985;SDS011;58645;43.068;25.610;2023-02-15T00:24:45;27.92;;;12.18;;
70985;SDS011;58645;43.068;25.610;2023-02-15T00:27:11;26.48;;;11.68;;
70985;SDS011;58645;43.068;25.610;2023-02-15T00:29:36;26.00;;;10.93;;
70985;SDS011;58645;43.068;25.610;2023-02-15T00:32:02;26.58;;;12.63;;
70985;SDS011;58645;43.068;25.610;2023-02-15T00:34:28;27.15;;;12.68;;
70985;SDS011;58645;43.068;25.610;2023-02-15T00:36:54;29.17;;;13.13;;
70985;SDS011;58645;43.068;25.610;2023-02-15T00:39:20;30.45;;;12.48;;
70985;SDS011;58645;43.068;25.610;2023-02-15T00:41:46;30.95;;;12.68;;
70985;SDS011;58645;43.068;25.610;2023-02-15T00:44:12;26.92;;;11.00;;
70985;SDS011;58645;43.068;25.610;2023-02-15T00:46:38;29.95;;;11.88;;
70985;SDS011;58645;43.068;25.610;2023-02-15T00:49:04;26.50;;;11.98;;
70985;SDS011;58645;43.068;25.610;2023-02-15T00:51:30;26.27;;;11.20;;
70985;SDS011;58645;43.068;25.610;2023-02-15T00:53:57;29.17;;;11.68;;
70985;SDS011;58645;43.068;25.610;2023-02-15T00:56:22;26.40;;;11.80;;
70985;SDS011;58645;43.068;25.610;2023-02-15T00:58:48;25.73;;;12.02;;
70985;SDS011;58645;43.068;25.610;2023-02-15T01:01:17;28.13;;;11.50;;
70985;SDS011;58645;43.068;25.610;2023-02-15T01:03:44;26.58;;;12.10;;
70985;SDS011;58645;43.068;25.610;2023-02-15T01:08:37;25.20;;;10.80;;
70985;SDS011;58645;43.068;25.610;2023-02-15T01:11:06;28.55;;;11.57;;
70985;SDS011;58645;43.068;25.610;2023-02-15T01:13:38;28.55;;;12.80;;
70985;SDS011;58645;43.068;25.610;2023-02-15T01:16:04;26.63;;;12.02;;
70985;SDS011;58645;43.068;25.610;2023-02-15T01:18:30;26.00;;;12.07;;
70985;SDS011;58645;43.068;25.610;2023-02-15T01:20:56;25.92;;;11.75;;
70985;SDS011;58645;43.068;25.610;2023-02-15T01:23:22;27.73;;;12.18;;
70985;SDS011;58645;43.068;25.610;2023-02-15T01:25:48;27.75;;;12.27;;
70985;SDS011;58645;43.068;25.610;2023-02-15T01:28:14;29.67;;;12.95;;
70985;SDS011;58645;43.068;25.610;2023-02-15T01:30:40;29.85;;;12.13;;
70985;SDS011;58645;43.068;25.610;2023-02-15T01:33:05;32.58;;;12.75;;
70985;SDS011;58645;43.068;25.610;2023-02-15T01:35:31;30.95;;;12.80;;
70985;SDS011;58645;43.068;25.610;2023-02-15T01:37:57;28.70;;;12.98;;
70985;SDS011;58645;43.068;25.610;2023-02-15T01:40:23;27.48;;;13.30;;
70985;SDS011;58645;43.068;25.610;2023-02-15T01:42:50;27.00;;;12.80;;
70985;SDS011;58645;43.068;25.610;2023-02-15T01:48:04;29.23;;;12.90;;
70985;SDS011;58645;43.068;25.610;2023-02-15T01:50:47;26.33;;;12.07;;
70985;SDS011;58645;43.068;25.610;2023-02-15T01:53:21;29.40;;;11.63;;
70985;SDS011;58645;43.068;25.610;2023-02-15T01:58:21;26.73;;;11.57;;
70985;SDS011;58645;43.068;25.610;2023-02-15T02:00:47;28.35;;;11.68;;
70985;SDS011;58645;43.068;25.610;2023-02-15T02:03:13;27.13;;;12.27;;
70985;SDS011;58645;43.068;25.610;2023-02-15T02:05:40;27.00;;;11.60;;
70985;SDS011;58645;43.068;25.610;2023-02-15T02:08:06;26.70;;;11.68;;
70985;SDS011;58645;43.068;25.610;2023-02-15T02:10:34;25.48;;;10.90;;
70985;SDS011;58645;43.068;25.610;2023-02-15T02:13:02;31.35;;;11.98;;
70985;SDS011;58645;43.068;25.610;2023-02-15T02:20:59;26.92;;;12.38;;
70985;SDS011;58645;43.068;25.610;2023-02-15T02:23:46;28.25;;;12.02;;
70985;SDS011;58645;43.068;25.610;2023-02-15T02:29:46;27.52;;;11.70;;
70985;SDS011;58645;43.068;25.610;2023-02-15T02:33:06;27.58;;;12.07;;
70985;SDS011;58645;43.068;25.610;2023-02-15T02:40:28;26.95;;;11.65;;
70985;SDS011;58645;43.068;25.610;2023-02-15T02:46:02;29.05;;;12.35;;
70985;SDS011;58645;43.068;25.610;2023-02-15T02:48:35;31.17;;;12.10;;
70985;SDS011;58645;43.068;25.610;2023-02-15T02:51:02;32.33;;;12.75;;
70985;SDS011;58645;43.068;25.610;2023-02-15T02:53:28;28.83;;;12.30;;
70985;SDS011;58645;43.068;25.610;2023-02-15T02:55:58;28.55;;;12.27;;
70985;SDS011;58645;43.068;25.610;2023-02-15T03:01:27;31.13;;;11.80;;
70985;SDS011;58645;43.068;25.610;2023-02-15T03:09:12;28.17;;;11.50;;
70985;SDS011;58645;43.068;25.610;2023-02-15T03:11:43;28.15;;;11.88;;
70985;SDS011;58645;43.068;25.610;2023-02-15T03:14:10;27.52;;;11.93;;
70985;SDS011;58645;43.068;25.610;2023-02-15T03:16:39;29.15;;;12.45;;
70985;SDS011;58645;43.068;25.610;2023-02-15T03:21:45;31.92;;;12.55;;
70985;SDS011;58645;43.068;25.610;2023-02-15T03:27:33;30.38;;;11.15;;
70985;SDS011;58645;43.068;25.610;2023-02-15T03:30:05;26.15;;;11.30;;
70985;SDS011;58645;43.068;25.610;2023-02-15T03:32:33;28.83;;;13.45;;
70985;SDS011;58645;43.068;25.610;2023-02-15T03:35:01;28.35;;;13.55;;
70985;SDS011;58645;43.068;25.610;2023-02-15T03:40:19;31.80;;;11.85;;
70985;SDS011;58645;43.068;25.610;2023-02-15T03:45:33;28.42;;;12.45;;
70985;SDS011;58645;43.068;25.610;2023-02-15T03:48:03;29.85;;;12.45;;
70985;SDS011;58645;43.068;25.610;2023-02-15T03:50:31;34.25;;;15.57;;
70985;SDS011;58645;43.068;25.610;2023-02-15T03:53:20;35.17;;;14.10;;
70985;SDS011;58645;43.068;25.610;2023-02-15T03:55:48;34.38;;;13.82;;
70985;SDS011;58645;43.068;25.610;2023-02-15T03:58:18;37.15;;;14.00;;
70985;SDS011;58645;43.068;25.610;2023-02-15T04:01:09;30.90;;;12.98;;
70985;SDS011;58645;43.068;25.610;2023-02-15T04:04:21;32.67;;;13.85;;
70985;SDS011;58645;43.068;25.610;2023-02-15T04:06:50;32.13;;;13.68;;
70985;SDS011;58645;43.068;25.610;2023-02-15T04:09:15;33.53;;;13.48;;
70985;SDS011;58645;43.068;25.610;2023-02-15T04:12:00;30.77;;;13.00;;
70985;SDS011;58645;43.068;25.610;2023-02-15T04:14:26;35.53;;;15.43;;
70985;SDS011;58645;43.068;25.610;2023-02-15T04:17:10;33.45;;;13.65;;
70985;SDS011;58645;43.068;25.610;2023-02-15T04:19:36;35.67;;;14.80;;
70985;SDS011;58645;43.068;25.610;2023-02-15T04:22:20;32.58;;;14.73;;
70985;SDS011;58645;43.068;25.610;2023-02-15T04:25:04;32.00;;;14.73;;
70985;SDS011;58645;43.068;25.610;2023-02-15T04:27:40;38.28;;;13.82;;
70985;SDS011;58645;43.068;25.610;2023-02-15T04:30:08;29.77;;;13.48;;
70985;SDS011;58645;43.068;25.610;2023-02-15T04:32:35;33.70;;;14.20;;
70985;SDS011;58645;43.068;25.610;2023-02-15T04:35:01;33.92;;;14.27;;
70985;SDS011;58645;43.068;25.610;2023-02-15T04:37:27;33.65;;;14.82;;
70985;SDS011;58645;43.068;25.610;2023-02-15T04:39:53;33.13;;;15.63;;
70985;SDS011;58645;43.068;25.610;2023-02-15T04:42:18;34.78;;;14.40;;
70985;SDS011;58645;43.068;25.610;2023-02-15T04:44:44;32.97;;;13.80;;
70985;SDS011;58645;43.068;25.610;2023-02-15T04:47:10;35.47;;;14.45;;
70985;SDS011;58645;43.068;25.610;2023-02-15T04:52:08;36.78;;;14.10;;
70985;SDS011;58645;43.068;25.610;2023-02-15T04:54:34;34.53;;;13.80;;
70985;SDS011;58645;43.068;25.610;2023-02-15T04:57:00;30.98;;;13.82;;
70985;SDS011;58645;43.068;25.610;2023-02-15T04:59:26;36.65;;;15.30;;
70985;SDS011;58645;43.068;25.610;2023-02-15T05:01:52;34.50;;;14.50;;
70985;SDS011;58645;43.068;25.610;2023-02-15T05:04:18;33.22;;;15.02;;
70985;SDS011;58645;43.068;25.610;2023-02-15T05:06:47;34.88;;;14.88;;
70985;SDS011;58645;43.068;25.610;2023-02-15T05:09:14;44.60;;;18.63;;
70985;SDS011;58645;43.068;25.610;2023-02-15T05:11:40;37.53;;;15.60;;
70985;SDS011;58645;43.068;25.610;2023-02-15T05:14:06;35.20;;;15.82;;
70985;SDS011;58645;43.068;25.610;2023-02-15T05:16:57;33.95;;;15.07;;
70985;SDS011;58645;43.068;25.610;2023-02-15T05:19:45;36.10;;;15.20;;
70985;SDS011;58645;43.068;25.610;2023-02-15T05:22:11;36.67;;;16.77;;
70985;SDS011;58645;43.068;25.610;2023-02-15T05:24:37;35.65;;;15.65;;
70985;SDS011;58645;43.068;25.610;2023-02-15T05:27:22;38.05;;;15.65;;
70985;SDS011;58645;43.068;25.610;2023-02-15T05:30:18;34.10;;;15.30;;
70985;SDS011;58645;43.068;25.610;2023-02-15T05:32:56;36.50;;;16.20;;
70985;SDS011;58645;43.068;25.610;2023-02-15T05:35:22;36.17;;;16.45;;
70985;SDS011;58645;43.068;25.610;2023-02-15T05:37:50;41.90;;;16.75;;
70985;SDS011;58645;43.068;25.610;2023-02-15T05:41:07;40.97;;;17.02;;
70985;SDS011;58645;43.068;25.610;2023-02-15T05:43:38;37.60;;;15.32;;
70985;SDS011;58645;43.068;25.610;2023-02-15T05:48:32;38.78;;;16.85;;
70985;SDS011;58645;43.068;25.610;2023-02-15T05:53:28;48.78;;;17.77;;
70985;SDS011;58645;43.068;25.610;2023-02-15T05:55:59;43.83;;;19.58;;
70985;SDS011;58645;43.068;25.610;2023-02-15T05:58:30;43.97;;;18.95;;
70985;SDS011;58645;43.068;25.610;2023-02-15T06:00:57;43.67;;;18.00;;
70985;SDS011;58645;43.068;25.610;2023-02-15T06:03:23;39.20;;;18.85;;
70985;SDS011;58645;43.068;25.610;2023-02-15T06:05:51;44.15;;;19.13;;
70985;SDS011;58645;43.068;25.610;2023-02-15T06:08:17;42.03;;;18.77;;
70985;SDS011;58645;43.068;25.610;2023-02-15T06:10:45;42.92;;;19.98;;
70985;SDS011;58645;43.068;25.610;2023-02-15T06:13:11;41.35;;;18.58;;
70985;SDS011;58645;43.068;25.610;2023-02-15T06:15:37;41.90;;;19.15;;
70985;SDS011;58645;43.068;25.610;2023-02-15T06:18:02;40.45;;;18.20;;
70985;SDS011;58645;43.068;25.610;2023-02-15T06:20:28;39.75;;;18.48;;
70985;SDS011;58645;43.068;25.610;2023-02-15T06:22:54;38.22;;;18.38;;
70985;SDS011;58645;43.068;25.610;2023-02-15T06:25:20;35.08;;;17.58;;
70985;SDS011;58645;43.068;25.610;2023-02-15T06:27:45;33.45;;;17.35;;
70985;SDS011;58645;43.068;25.610;2023-02-15T06:30:11;37.10;;;18.75;;
70985;SDS011;58645;43.068;25.610;2023-02-15T06:32:38;34.10;;;17.30;;
70985;SDS011;58645;43.068;25.610;2023-02-15T06:35:05;26.92;;;15.57;;
70985;SDS011;58645;43.068;25.610;2023-02-15T06:37:31;30.75;;;16.17;;
70985;SDS011;58645;43.068;25.610;2023-02-15T06:39:57;28.83;;;18.55;;
70985;SDS011;58645;43.068;25.610;2023-02-15T06:42:23;29.88;;;16.83;;
70985;SDS011;58645;43.068;25.610;2023-02-15T06:44:49;29.95;;;16.02;;
70985;SDS011;58645;43.068;25.610;2023-02-15T06:47:15;27.20;;;15.35;;
70985;SDS011;58645;43.068;25.610;2023-02-15T06:49:41;30.25;;;15.88;;
70985;SDS011;58645;43.068;25.610;2023-02-15T06:52:06;29.10;;;15.93;;
70985;SDS011;58645;43.068;25.610;2023-02-15T06:54:32;28.00;;;16.55;;
70985;SDS011;58645;43.068;25.610;2023-02-15T06:56:58;31.13;;;16.30;;
70985;SDS011;58645;43.068;25.610;2023-02-15T06:59:24;34.42;;;17.25;;
70985;SDS011;58645;43.068;25.610;2023-02-15T07:01:54;30.92;;;16.35;;
70985;SDS011;58645;43.068;25.610;2023-02-15T07:04:42;31.35;;;16.20;;
70985;SDS011;58645;43.068;25.610;2023-02-15T07:19:01;26.70;;;14.00;;
70985;SDS011;58645;43.068;25.610;2023-02-15T07:21:54;29.95;;;14.95;;
70985;SDS011;58645;43.068;25.610;2023-02-15T07:24:39;29.45;;;14.93;;
70985;SDS011;58645;43.068;25.610;2023-02-15T07:27:22;30.45;;;14.10;;
70985;SDS011;58645;43.068;25.610;2023-02-15T07:29:55;28.42;;;13.82;;
70985;SDS011;58645;43.068;25.610;2023-02-15T07:32:21;30.83;;;15.15;;
70985;SDS011;58645;43.068;25.610;2023-02-15T07:34:48;31.77;;;16.63;;
70985;SDS011;58645;43.068;25.610;2023-02-15T07:37:13;30.33;;;15.55;;
70985;SDS011;58645;43.068;25.610;2023-02-15T07:39:39;33.45;;;16.48;;
70985;SDS011;58645;43.068;25.610;2023-02-15T07:42:08;42.20;;;19.98;;
70985;SDS011;58645;43.068;25.610;2023-02-15T07:44:33;46.50;;;23.95;;
70985;SDS011;58645;43.068;25.610;2023-02-15T07:46:59;43.10;;;24.13;;
70985;SDS011;58645;43.068;25.610;2023-02-15T07:49:56;32.50;;;17.35;;
70985;SDS011;58645;43.068;25.610;2023-02-15T07:52:23;35.08;;;19.65;;
70985;SDS011;58645;43.068;25.610;2023-02-15T07:54:50;38.75;;;22.83;;
70985;SDS011;58645;43.068;25.610;2023-02-15T07:57:16;38.60;;;21.88;;
70985;SDS011;58645;43.068;25.610;2023-02-15T07:59:42;38.97;;;24.83;;
70985;SDS011;58645;43.068;25.610;2023-02-15T08:02:21;37.10;;;23.58;;
70985;SDS011;58645;43.068;25.610;2023-02-15T08:04:47;32.63;;;20.00;;
70985;SDS011;58645;43.068;25.610;2023-02-15T08:07:13;29.80;;;18.92;;
70985;SDS011;58645;43.068;25.610;2023-02-15T08:09:39;32.53;;;19.92;;
70985;SDS011;58645;43.068;25.610;2023-02-15T08:12:05;41.75;;;25.10;;
70985;SDS011;58645;43.068;25.610;2023-02-15T08:14:31;33.17;;;22.40;;
70985;SDS011;58645;43.068;25.610;2023-02-15T08:16:58;44.78;;;27.85;;
70985;SDS011;58645;43.068;25.610;2023-02-15T08:19:31;28.55;;;19.60;;
70985;SDS011;58645;43.068;25.610;2023-02-15T08:22:04;29.33;;;20.35;;
70985;SDS011;58645;43.068;25.610;2023-02-15T08:24:33;35.28;;;23.60;;
70985;SDS011;58645;43.068;25.610;2023-02-15T08:27:01;30.75;;;21.27;;
70985;SDS011;58645;43.068;25.610;2023-02-15T08:29:28;36.30;;;22.77;;
70985;SDS011;58645;43.068;25.610;2023-02-15T08:31:59;30.55;;;20.73;;
70985;SDS011;58645;43.068;25.610;2023-02-15T08:34:35;26.60;;;17.52;;
70985;SDS011;58645;43.068;25.610;2023-02-15T08:37:02;28.80;;;18.85;;
70985;SDS011;58645;43.068;25.610;2023-02-15T08:39:29;23.55;;;15.80;;
70985;SDS011;58645;43.068;25.610;2023-02-15T08:41:55;35.78;;;25.45;;
70985;SDS011;58645;43.068;25.610;2023-02-15T08:44:21;28.40;;;19.38;;
70985;SDS011;58645;43.068;25.610;2023-02-15T08:49:15;22.80;;;15.13;;
70985;SDS011;58645;43.068;25.610;2023-02-15T08:51:44;25.48;;;17.17;;
70985;SDS011;58645;43.068;25.610;2023-02-15T08:54:15;19.23;;;13.45;;
70985;SDS011;58645;43.068;25.610;2023-02-15T08:56:49;18.20;;;12.50;;
70985;SDS011;58645;43.068;25.610;2023-02-15T08:59:15;20.52;;;13.68;;
70985;SDS011;58645;43.068;25.610;2023-02-15T09:01:43;22.55;;;15.70;;
70985;SDS011;58645;43.068;25.610;2023-02-15T09:04:09;17.00;;;12.40;;
70985;SDS011;58645;43.068;25.610;2023-02-15T09:06:36;15.07;;;10.88;;
70985;SDS011;58645;43.068;25.610;2023-02-15T09:09:03;13.90;;;8.85;;
70985;SDS011;58645;43.068;25.610;2023-02-15T09:11:31;14.18;;;9.90;;
70985;SDS011;58645;43.068;25.610;2023-02-15T09:14:02;15.32;;;9.98;;
70985;SDS011;58645;43.068;25.610;2023-02-15T09:16:33;17.27;;;12.43;;
70985;SDS011;58645;43.068;25.610;2023-02-15T09:19:00;18.58;;;13.00;;
70985;SDS011;58645;43.068;25.610;2023-02-15T09:21:27;21.08;;;15.30;;
70985;SDS011;58645;43.068;25.610;2023-02-15T09:23:58;17.45;;;11.80;;
70985;SDS011;58645;43.068;25.610;2023-02-15T09:26:25;20.42;;;15.13;;
70985;SDS011;58645;43.068;25.610;2023-02-15T09:28:54;16.60;;;12.63;;
70985;SDS011;58645;43.068;25.610;2023-02-15T09:31:25;17.83;;;11.70;;
70985;SDS011;58645;43.068;25.610;2023-02-15T09:33:55;19.95;;;13.45;;
70985;SDS011;58645;43.068;25.610;2023-02-15T09:36:24;15.40;;;10.57;;
70985;SDS011;58645;43.068;25.610;2023-02-15T09:57:39;14.30;;;10.02;;
70985;SDS011;58645;43.068;25.610;2023-02-15T10:00:30;14.35;;;9.32;;
70985;SDS011;58645;43.068;25.610;2023-02-15T10:12:01;14.40;;;9.27;;
70985;SDS011;58645;43.068;25.610;2023-02-15T10:25:19;22.20;;;15.40;;
70985;SDS011;58645;43.068;25.610;2023-02-15T10:28:31;21.23;;;16.52;;
70985;SDS011;58645;43.068;25.610;2023-02-15T10:30:59;25.20;;;19.00;;
70985;SDS011;58645;43.068;25.610;2023-02-15T10:33:41;18.58;;;14.38;;
70985;SDS011;58645;43.068;25.610;2023-02-15T10:47:04;11.80;;;8.88;;
70985;SDS011;58645;43.068;25.610;2023-02-15T10:52:23;12.90;;;7.93;;
70985;SDS011;58645;43.068;25.610;2023-02-15T10:55:02;13.13;;;8.90;;
70985;SDS011;58645;43.068;25.610;2023-02-15T11:08:15;18.75;;;13.18;;
70985;SDS011;58645;43.068;25.610;2023-02-15T11:11:03;14.20;;;10.10;;
70985;SDS011;58645;43.068;25.610;2023-02-15T11:13:34;12.73;;;9.93;;
70985;SDS011;58645;43.068;25.610;2023-02-15T11:18:43;11.05;;;7.28;;
70985;SDS011;58645;43.068;25.610;2023-02-15T11:23:53;12.10;;;8.75;;
70985;SDS011;58645;43.068;25.610;2023-02-15T11:26:21;16.05;;;11.00;;
70985;SDS011;58645;43.068;25.610;2023-02-15T11:29:04;15.80;;;10.70;;
70985;SDS011;58645;43.068;25.610;2023-02-15T11:31:43;18.63;;;14.13;;
70985;SDS011;58645;43.068;25.610;2023-02-15T11:34:40;13.82;;;10.45;;
70985;SDS011;58645;43.068;25.610;2023-02-15T11:37:17;14.27;;;8.52;;
70985;SDS011;58645;43.068;25.610;2023-02-15T11:39:45;10.38;;;7.57;;
70985;SDS011;58645;43.068;25.610;2023-02-15T11:42:17;12.50;;;8.90;;
70985;SDS011;58645;43.068;25.610;2023-02-15T11:47:27;13.20;;;8.50;;
70985;SDS011;58645;43.068;25.610;2023-02-15T11:52:19;14.45;;;8.20;;
70985;SDS011;58645;43.068;25.610;2023-02-15T11:57:14;10.30;;;6.93;;
70985;SDS011;58645;43.068;25.610;2023-02-15T11:59:48;12.43;;;9.00;;
70985;SDS011;58645;43.068;25.610;2023-02-15T12:02:19;14.73;;;8.40;;
70985;SDS011;58645;43.068;25.610;2023-02-15T12:04:58;12.93;;;9.77;;
70985;SDS011;58645;43.068;25.610;2023-02-15T12:07:36;16.83;;;13.98;;
70985;SDS011;58645;43.068;25.610;2023-02-15T12:10:25;16.00;;;13.02;;
70985;SDS011;58645;43.068;25.610;2023-02-15T12:13:37;15.10;;;11.52;;
70985;SDS011;58645;43.068;25.610;2023-02-15T12:15:46;9.82;;;6.93;;
70985;SDS011;58645;43.068;25.610;2023-02-15T12:18:21;10.25;;;8.40;;
70985;SDS011;58645;43.068;25.610;2023-02-15T12:21:02;13.60;;;10.57;;
70985;SDS011;58645;43.068;25.610;2023-02-15T12:23:32;17.20;;;11.90;;
70985;SDS011;58645;43.068;25.610;2023-02-15T12:25:59;13.50;;;9.93;;
70985;SDS011;58645;43.068;25.610;2023-02-15T12:28:32;18.48;;;14.65;;
70985;SDS011;58645;43.068;25.610;2023-02-15T12:30:59;14.30;;;11.05;;
70985;SDS011;58645;43.068;25.610;2023-02-15T12:36:03;12.80;;;8.30;;
70985;SDS011;58645;43.068;25.610;2023-02-15T12:38:38;14.30;;;10.02;;
70985;SDS011;58645;43.068;25.610;2023-02-15T12:41:05;17.23;;;14.07;;
70985;SDS011;58645;43.068;25.610;2023-02-15T12:43:46;18.98;;;12.02;;
70985;SDS011;58645;43.068;25.610;2023-02-15T12:46:13;15.73;;;11.35;;
70985;SDS011;58645;43.068;25.610;2023-02-15T12:48:45;12.02;;;7.60;;
70985;SDS011;58645;43.068;25.610;2023-02-15T12:51:13;14.57;;;8.90;;
70985;SDS011;58645;43.068;25.610;2023-02-15T12:53:40;20.23;;;13.27;;
70985;SDS011;58645;43.068;25.610;2023-02-15T12:56:07;15.18;;;10.45;;
70985;SDS011;58645;43.068;25.610;2023-02-15T12:58:35;17.75;;;9.82;;
70985;SDS011;58645;43.068;25.610;2023-02-15T13:03:38;14.07;;;8.95;;
70985;SDS011;58645;43.068;25.610;2023-02-15T13:06:23;12.98;;;7.90;;
70985;SDS011;58645;43.068;25.610;2023-02-15T13:09:37;18.00;;;9.88;;
70985;SDS011;58645;43.068;25.610;2023-02-15T13:11:44;19.70;;;11.77;;
70985;SDS011;58645;43.068;25.610;2023-02-15T13:14:21;13.45;;;7.53;;
70985;SDS011;58645;43.068;25.610;2023-02-15T13:16:56;12.95;;;7.82;;
70985;SDS011;58645;43.068;25.610;2023-02-15T13:19:33;14.02;;;7.28;;
70985;SDS011;58645;43.068;25.610;2023-02-15T13:22:03;12.90;;;7.82;;
70985;SDS011;58645;43.068;25.610;2023-02-15T13:24:34;13.38;;;7.93;;
70985;SDS011;58645;43.068;25.610;2023-02-15T13:27:04;12.98;;;7.65;;
70985;SDS011;58645;43.068;25.610;2023-02-15T13:29:34;13.85;;;8.00;;
70985;SDS011;58645;43.068;25.610;2023-02-15T13:32:10;12.52;;;7.30;;
70985;SDS011;58645;43.068;25.610;2023-02-15T13:34:46;12.45;;;7.30;;
70985;SDS011;58645;43.068;25.610;2023-02-15T13:45:19;12.20;;;6.97;;
70985;SDS011;58645;43.068;25.610;2023-02-15T13:53:27;15.00;;;9.02;;
70985;SDS011;58645;43.068;25.610;2023-02-15T14:01:14;12.40;;;6.63;;
70985;SDS011;58645;43.068;25.610;2023-02-15T14:06:47;10.60;;;6.07;;
70985;SDS011;58645;43.068;25.610;2023-02-15T14:20:44;12.38;;;6.60;;
70985;SDS011;58645;43.068;25.610;2023-02-15T14:29:07;16.33;;;9.48;;
70985;SDS011;58645;43.068;25.610;2023-02-15T14:31:41;13.63;;;7.28;;
70985;SDS011;58645;43.068;25.610;2023-02-15T14:34:45;14.30;;;7.78;;
70985;SDS011;58645;43.068;25.610;2023-02-15T14:37:31;15.45;;;8.18;;
70985;SDS011;58645;43.068;25.610;2023-02-15T14:43:01;14.75;;;7.95;;
70985;SDS011;58645;43.068;25.610;2023-02-15T14:45:48;15.23;;;7.88;;
70985;SDS011;58645;43.068;25.610;2023-02-15T14:48:31;14.88;;;8.82;;
70985;SDS011;58645;43.068;25.610;2023-02-15T14:51:03;12.95;;;7.55;;
70985;SDS011;58645;43.068;25.610;2023-02-15T14:58:38;15.45;;;8.38;;
70985;SDS011;58645;43.068;25.610;2023-02-15T15:01:39;16.52;;;8.27;;
70985;SDS011;58645;43.068;25.610;2023-02-15T15:09:48;13.10;;;7.97;;
70985;SDS011;58645;43.068;25.610;2023-02-15T15:12:51;15.18;;;8.20;;
70985;SDS011;58645;43.068;25.610;2023-02-15T15:25:50;15.55;;;9.10;;
70985;SDS011;58645;43.068;25.610;2023-02-15T15:48:36;32.10;;;14.70;;
70985;SDS011;58645;43.068;25.610;2023-02-15T15:51:06;33.60;;;15.18;;
70985;SDS011;58645;43.068;25.610;2023-02-15T15:53:38;30.70;;;13.50;;
70985;SDS011;58645;43.068;25.610;2023-02-15T15:56:09;30.65;;;14.88;;
70985;SDS011;58645;43.068;25.610;2023-02-15T15:58:46;31.05;;;15.75;;
70985;SDS011;58645;43.068;25.610;2023-02-15T16:01:28;32.03;;;16.98;;
70985;SDS011;58645;43.068;25.610;2023-02-15T16:03:56;34.40;;;17.83;;
70985;SDS011;58645;43.068;25.610;2023-02-15T16:06:36;32.30;;;17.95;;
70985;SDS011;58645;43.068;25.610;2023-02-15T16:09:10;33.40;;;17.58;;
70985;SDS011;58645;43.068;25.610;2023-02-15T16:11:42;36.25;;;18.30;;
70985;SDS011;58645;43.068;25.610;2023-02-15T16:14:12;36.28;;;19.75;;
70985;SDS011;58645;43.068;25.610;2023-02-15T16:17:16;37.83;;;19.63;;
70985;SDS011;58645;43.068;25.610;2023-02-15T16:19:45;36.30;;;19.98;;
70985;SDS011;58645;43.068;25.610;2023-02-15T16:22:19;38.28;;;20.25;;
70985;SDS011;58645;43.068;25.610;2023-02-15T16:27:54;34.75;;;17.10;;
70985;SDS011;58645;43.068;25.610;2023-02-15T16:30:27;36.92;;;17.13;;
70985;SDS011;58645;43.068;25.610;2023-02-15T16:33:05;39.17;;;19.63;;
70985;SDS011;58645;43.068;25.610;2023-02-15T16:35:58;34.47;;;16.95;;
70985;SDS011;58645;43.068;25.610;2023-02-15T16:41:23;41.25;;;21.20;;
70985;SDS011;58645;43.068;25.610;2023-02-15T16:43:52;38.75;;;20.30;;
70985;SDS011;58645;43.068;25.610;2023-02-15T16:46:28;43.33;;;23.13;;
70985;SDS011;58645;43.068;25.610;2023-02-15T16:48:58;44.83;;;23.90;;
70985;SDS011;58645;43.068;25.610;2023-02-15T16:54:17;45.45;;;24.17;;
70985;SDS011;58645;43.068;25.610;2023-02-15T16:56:46;56.85;;;27.30;;
70985;SDS011;58645;43.068;25.610;2023-02-15T16:59:20;65.45;;;32.28;;
70985;SDS011;58645;43.068;25.610;2023-02-15T17:02:13;65.47;;;32.33;;
70985;SDS011;58645;43.068;25.610;2023-02-15T17:04:42;56.22;;;30.45;;
70985;SDS011;58645;43.068;25.610;2023-02-15T17:07:18;64.32;;;30.25;;
70985;SDS011;58645;43.068;25.610;2023-02-15T17:09:51;56.17;;;29.10;;
70985;SDS011;58645;43.068;25.610;2023-02-15T17:17:58;82.68;;;42.28;;
70985;SDS011;58645;43.068;25.610;2023-02-15T17:20:32;91.10;;;47.08;;
70985;SDS011;58645;43.068;25.610;2023-02-15T17:28:15;50.28;;;25.50;;
70985;SDS011;58645;43.068;25.610;2023-02-15T17:30:44;46.88;;;24.40;;
70985;SDS011;58645;43.068;25.610;2023-02-15T17:38:30;37.35;;;20.55;;
70985;SDS011;58645;43.068;25.610;2023-02-15T17:40:56;42.38;;;21.15;;
70985;SDS011;58645;43.068;25.610;2023-02-15T17:43:23;42.33;;;21.88;;
70985;SDS011;58645;43.068;25.610;2023-02-15T17:45:50;46.95;;;21.40;;
70985;SDS011;58645;43.068;25.610;2023-02-15T17:48:20;39.85;;;20.73;;
70985;SDS011;58645;43.068;25.610;2023-02-15T17:50:47;50.22;;;23.15;;
70985;SDS011;58645;43.068;25.610;2023-02-15T17:53:15;59.47;;;31.45;;
70985;SDS011;58645;43.068;25.610;2023-02-15T17:55:43;67.97;;;33.95;;
70985;SDS011;58645;43.068;25.610;2023-02-15T18:03:23;72.30;;;37.92;;
70985;SDS011;58645;43.068;25.610;2023-02-15T18:06:09;70.38;;;35.63;;
70985;SDS011;58645;43.068;25.610;2023-02-15T18:08:56;79.30;;;40.22;;
70985;SDS011;58645;43.068;25.610;2023-02-15T18:11:40;76.03;;;39.75;;
70985;SDS011;58645;43.068;25.610;2023-02-15T18:14:09;68.57;;;34.78;;
70985;SDS011;58645;43.068;25.610;2023-02-15T18:16:39;61.75;;;30.88;;
70985;SDS011;58645;43.068;25.610;2023-02-15T18:19:14;54.25;;;28.02;;
70985;SDS011;58645;43.068;25.610;2023-02-15T18:21:46;46.20;;;22.77;;
70985;SDS011;58645;43.068;25.610;2023-02-15T18:24:17;46.97;;;23.95;;
70985;SDS011;58645;43.068;25.610;2023-02-15T18:26:54;44.05;;;22.52;;
70985;SDS011;58645;43.068;25.610;2023-02-15T18:29:20;44.47;;;21.33;;
70985;SDS011;58645;43.068;25.610;2023-02-15T18:31:47;49.25;;;24.58;;
70985;SDS011;58645;43.068;25.610;2023-02-15T18:34:27;39.72;;;20.88;;
70985;SDS011;58645;43.068;25.610;2023-02-15T18:36:56;40.17;;;21.67;;
70985;SDS011;58645;43.068;25.610;2023-02-15T18:41:56;45.67;;;22.02;;
70985;SDS011;58645;43.068;25.610;2023-02-15T18:44:22;52.85;;;24.60;;
70985;SDS011;58645;43.068;25.610;2023-02-15T18:46:48;53.88;;;24.25;;
70985;SDS011;58645;43.068;25.610;2023-02-15T18:49:13;52.70;;;27.33;;
70985;SDS011;58645;43.068;25.610;2023-02-15T18:51:39;50.45;;;24.85;;
70985;SDS011;58645;43.068;25.610;2023-02-15T18:54:10;53.72;;;26.00;;
70985;SDS011;58645;43.068;25.610;2023-02-15T18:56:42;54.00;;;26.55;;
70985;SDS011;58645;43.068;25.610;2023-02-15T18:59:15;57.15;;;29.50;;